Delta Virtual Airport Information Service

Albuquerque International Airport

ICAO: KABQ Country: United States
Latitude: 35.0402 Longitude: -106.609
Latest Arrival : SWA1833 (A) (KMCI-KABQ) Latest Departure : SWA3343 (A) (KABQ-KLAS)


WX CaptureLIVE
Data provided by noaa.gov | Fetched at 15:17:29

METAR : KABQ 151952Z 23009G14KT 10SM FEW110 FEW240 34/05 A3017 RMK AO2 LTG DSNT E SLP111 CB DSNT NE-SE T03440050

TAF : KABQ 151740Z 1518/1618 25008KT P6SM FEW120 FM152200 36011KT P6SM VCTS SCT100CB BKN150 TEMPO 1522/1601 VRB20G35KT 6SM -SHRA BLDU BKN100 FM160100 09024G34KT P6SM VCSH BKN100 FM160400 12016G26KT P6SM SCT100 FM160700 09007KT P6SM FEW120


Runway Data for KABQ
Data provided by openaviationdata.com

Runway ID Mag Var Hdg Length Elevation Surface ILS Freq ILS Id ILS Slope
3 11 33° 10001 ft 5311 ft Concrete 111.5 IBZY 3
8 11 79° 13774 ft 5311 ft Concrete 111.9 ISPT 3
12 11 117° 5998 ft 5311 ft Concrete -- -- --
17 11 172° 10013 ft 5311 ft Asphalt -- -- --
21 11 213° 10001 ft 5311 ft Concrete -- -- --
26 11 259° 13774 ft 5311 ft Concrete -- -- --
30 11 297° 5998 ft 5311 ft Concrete -- -- --
35 11 352° 10013 ft 5311 ft Asphalt -- -- --

Albuquerque International Airport, United States
Use only for reference purposes



Not for navigational purposes.